Terminal Aerodrome Forecast
Issued by NWS Sioux Falls, SD

Home | Current Version | Previous Version | Text Only | Print | Product List | Glossary On
Versions: 1 2 3 4 5 6 7 8 9 10 11 12 13 14 15 16 17 18
000
FTUS43 KFSD 151734
TAFHON
TAF
KHON 151734Z 1518/1618 33017G25KT P6SM FEW025
     FM152300 35008KT P6SM FEW250
     FM160300 04004KT P6SM FEW250
     FM160700 11005KT P6SM SCT250
     FM161100 14011KT P6SM BKN150
     FM161600 16018G27KT P6SM SCT150=

USA.gov is the U.S. government's official web portal to all federal, state and local government web resources and services.